Time;durP1;ratioP1;P1;durP2;ratioP2;P2;SDS_P1;SDS_P2;PMS_P1;PMS_P2;Temp;Humidity;BMP_temperature;BMP_pressure;BME280_temperature;BME280_humidity;BME280_pressure;Samples;Min_cycle;Max_cycle;Signal;HPM_P1;HPM_P2
2023/12/17 00:01:31;;;;;;;22.27;7.97;;;;;;;;;;5120914;27;20049;-80
2023/12/17 00:03:57;;;;;;;22.73;10.27;;;;;;;;;;5104834;27;20045;-81
2023/12/17 00:06:23;;;;;;;17.60;9.02;;;;;;;;;;5123463;27;20741;-80
2023/12/17 00:08:50;;;;;;;18.45;7.18;;;;;;;;;;5110699;27;20046;-80
2023/12/17 00:11:16;;;;;;;17.15;7.07;;;;;;;;;;5113841;27;20042;-81
2023/12/17 00:13:42;;;;;;;14.40;6.95;;;;;;;;;;5114967;27;20035;-81
2023/12/17 00:16:08;;;;;;;20.75;6.85;;;;;;;;;;5122262;27;20456;-80
2023/12/17 00:18:34;;;;;;;14.20;7.32;;;;;;;;;;5118396;27;20050;-81
2023/12/17 00:21:01;;;;;;;15.98;6.00;;;;;;;;;;5117485;27;20382;-80
2023/12/17 00:23:27;;;;;;;11.10;6.60;;;;;;;;;;5112611;27;20039;-81
2023/12/17 00:25:53;;;;;;;14.63;7.13;;;;;;;;;;5120836;27;20039;-81
2023/12/17 00:28:19;;;;;;;17.40;7.97;;;;;;;;;;5101473;27;20031;-81
2023/12/17 00:30:46;;;;;;;16.00;7.05;;;;;;;;;;5117851;27;20030;-80
2023/12/17 00:33:12;;;;;;;11.77;5.50;;;;;;;;;;5099463;27;20035;-81
2023/12/17 00:35:38;;;;;;;18.65;8.35;;;;;;;;;;5116776;27;20038;-81
2023/12/17 00:38:04;;;;;;;16.60;7.50;;;;;;;;;;5098433;27;21435;-81
2023/12/17 00:40:30;;;;;;;17.88;7.32;;;;;;;;;;5091286;27;20035;-81
2023/12/17 00:42:56;;;;;;;16.20;7.05;;;;;;;;;;5121889;27;20611;-80
2023/12/17 00:45:22;;;;;;;17.90;7.35;;;;;;;;;;5100954;27;20039;-81
2023/12/17 00:47:49;;;;;;;13.73;6.68;;;;;;;;;;5114942;27;20043;-80
2023/12/17 00:50:15;;;;;;;15.13;6.97;;;;;;;;;;5090168;27;20449;-81
2023/12/17 00:52:41;;;;;;;16.58;7.65;;;;;;;;;;5106280;27;20039;-81
2023/12/17 00:55:07;;;;;;;14.77;7.15;;;;;;;;;;5106166;27;20035;-81
2023/12/17 00:57:33;;;;;;;15.77;6.78;;;;;;;;;;5109983;27;20070;-81
2023/12/17 00:59:59;;;;;;;19.83;9.65;;;9.50;99.90;;;;;;5117544;27;20069;-80
2023/12/17 01:02:25;;;;;;;22.52;7.55;;;;;;;;;;5089278;27;20141;-81
2023/12/17 01:04:51;;;;;;;12.25;5.35;;;;;;;;;;5115673;27;20042;-81
2023/12/17 01:07:21;;;;;;;13.85;6.93;;;;;;;;;;5115095;27;20050;-81
2023/12/17 01:09:47;;;;;;;14.80;6.63;;;;;;;;;;5100305;27;20042;-81
2023/12/17 01:12:14;;;;;;;15.70;7.07;;;;;;;;;;5099341;27;20107;-81
2023/12/17 01:14:42;;;;;;;18.88;7.85;;;;;;;;;;5098932;27;20030;-81
2023/12/17 01:17:08;;;;;;;17.80;7.10;;;;;;;;;;5117550;27;20160;-81
2023/12/17 01:19:36;;;;;;;20.13;7.88;;;;;;;;;;5099063;27;20039;-82
2023/12/17 01:22:02;;;;;;;14.45;7.70;;;;;;;;;;5115496;27;20440;-81
2023/12/17 01:24:28;;;;;;;16.88;8.35;;;;;;;;;;5116827;27;20512;-81
2023/12/17 01:26:55;;;;;;;17.67;7.10;;;;;;;;;;5099388;27;20039;-81
2023/12/17 01:29:21;;;;;;;17.67;7.80;;;;;;;;;;5115496;27;20070;-81
2023/12/17 01:31:47;;;;;;;13.43;7.10;;;;;;;;;;5117548;27;20027;-80
2023/12/17 01:34:13;;;;;;;18.45;8.38;;;;;;;;;;5100240;27;20457;-82
2023/12/17 01:36:39;;;;;;;15.52;8.65;;;;;;;;;;5117578;27;20038;-81
2023/12/17 01:39:05;;;;;;;18.15;7.93;;;;;;;;;;5117569;27;20155;-81
2023/12/17 01:41:31;;;;;;;17.63;8.18;;;;;;;;;;5114619;27;20091;-81
2023/12/17 01:43:58;;;;;;;15.30;9.15;;;;;;;;;;5117212;27;20095;-82
2023/12/17 01:46:24;;;;;;;16.95;8.27;;;;;;;;;;5098373;27;20067;-81
2023/12/17 01:48:50;;;;;;;22.70;8.18;;;;;;;;;;5097805;27;20048;-82
2023/12/17 01:51:17;;;;;;;17.38;7.88;;;;;;;;;;5100396;27;20035;-80
2023/12/17 01:53:43;;;;;;;20.55;6.68;;;;;;;;;;5114373;27;20513;-80
2023/12/17 01:56:10;;;;;;;17.25;7.82;;;;;;;;;;5098099;27;20049;-80
2023/12/17 01:58:36;;;;;;;18.65;8.23;;;;;;;;;;5117436;27;20067;-81
2023/12/17 02:01:02;;;;;;;14.02;7.25;;;;;;;;;;5115262;27;20108;-80
2023/12/17 02:03:28;;;;;;;13.10;6.85;;;;;;;;;;5099589;27;20123;-79
2023/12/17 02:05:54;;;;;;;15.48;6.85;;;;;;;;;;5098142;27;20043;-80
2023/12/17 02:08:20;;;;;;;19.05;8.27;;;;;;;;;;5115096;27;20038;-81
2023/12/17 02:10:46;;;;;;;19.60;9.27;;;;;;;;;;5099588;27;20038;-80
2023/12/17 02:13:15;;;;;;;18.08;7.15;;;;;;;;;;5114933;27;20119;-80
2023/12/17 02:15:41;;;;;;;17.52;8.10;;;;;;;;;;5100484;27;20031;-80
2023/12/17 02:18:10;;;;;;;16.42;6.47;;;;;;;;;;5097201;27;20045;-80
2023/12/17 02:20:36;;;;;;;15.38;5.85;;;;;;;;;;5115059;27;20045;-80
2023/12/17 02:23:05;;;;;;;15.40;6.75;;;;;;;;;;5116100;27;20035;-81
2023/12/17 02:25:32;;;;;;;17.02;7.55;;;;;;;;;;5096774;27;20035;-80
2023/12/17 02:27:58;;;;;;;16.20;6.35;;;;;;;;;;5115080;27;20058;-79
2023/12/17 02:30:25;;;;;;;12.60;6.78;;;;;;;;;;5115582;27;20739;-81
2023/12/17 02:32:51;;;;;;;16.10;7.07;;;;;;;;;;5099648;27;20043;-80
2023/12/17 02:35:17;;;;;;;16.83;6.80;;;;;;;;;;5097734;27;20034;-81
2023/12/17 02:37:43;;;;;;;17.80;9.18;;;;;;;;;;5099144;27;20047;-80
2023/12/17 02:40:10;;;;;;;18.85;6.68;;;;;;;;;;5096411;27;20088;-81
2023/12/17 02:42:36;;;;;;;15.82;7.13;;;;;;;;;;5097564;27;20561;-81
2023/12/17 02:45:02;;;;;;;15.60;6.50;;;;;;;;;;5096233;28;20043;-80
2023/12/17 02:47:28;;;;;;;17.08;6.90;;;;;;;;;;5096141;27;20046;-79
2023/12/17 02:49:55;;;;;;;14.00;6.80;;;;;;;;;;5115356;27;20054;-81
2023/12/17 02:52:21;;;;;;;19.55;7.47;;;;;;;;;;5098325;27;20088;-81
2023/12/17 02:54:48;;;;;;;16.80;7.80;;;;;;;;;;5098927;27;20551;-80
2023/12/17 02:57:14;;;;;;;16.90;7.70;;;;;;;;;;5114563;27;20078;-81
2023/12/17 02:59:41;;;;;;;17.88;8.23;;;;;;;;;;5114274;27;20085;-80
2023/12/17 03:02:07;;;;;;;15.63;7.38;;;;;;;;;;5100204;27;20034;-80
2023/12/17 03:04:33;;;;;;;15.10;7.82;;;;;;;;;;5118142;27;20043;-81
2023/12/17 03:06:59;;;;;;;15.27;7.65;;;;;;;;;;5101580;27;20031;-80
2023/12/17 03:09:25;;;;;;;17.38;8.60;;;;;;;;;;5102893;27;20046;-80
2023/12/17 03:11:52;;;;;;;16.35;7.93;;;;;;;;;;5117106;27;20819;-81
2023/12/17 03:14:18;;;;;;;23.98;9.50;;;;;;;;;;5102980;27;20126;-80
2023/12/17 03:16:44;;;;;;;19.38;9.93;;;;;;;;;;5102553;27;20031;-81
2023/12/17 03:19:10;;;;;;;19.17;8.98;;;;;;;;;;5119669;27;20038;-80
2023/12/17 03:21:36;;;;;;;17.30;8.73;;;;;;;;;;5118494;27;20093;-80
2023/12/17 03:24:05;;;;;;;17.13;8.18;;;;;;;;;;5101171;27;20050;-79
2023/12/17 03:26:31;;;;;;;20.45;9.63;;;;;;;;;;5100715;27;20038;-80
2023/12/17 03:28:57;;;;;;;20.42;9.10;;;;;;;;;;5102133;27;20035;-80
2023/12/17 03:31:23;;;;;;;18.58;9.40;;;;;;;;;;5117005;27;20495;-80
2023/12/17 03:33:49;;;;;;;16.58;8.55;;;;;;;;;;5104694;27;20158;-81
2023/12/17 03:36:16;;;;;;;24.02;10.27;;;;;;;;;;5101364;27;20035;-81
2023/12/17 03:38:43;;;;;;;20.00;9.52;;;;;;;;;;5101201;27;20046;-81
2023/12/17 03:41:23;;;;;;;17.52;8.45;;;9.30;99.90;;;;;;5119496;27;20103;-80
2023/12/17 03:43:51;;;;;;;19.27;9.50;;;9.30;99.90;;;;;;5102667;27;20043;-81
2023/12/17 03:46:17;;;;;;;17.52;7.80;;;;;;;;;;5101533;27;20062;-79
2023/12/17 03:48:43;;;;;;;19.55;7.95;;;;;;;;;;5103770;27;20141;-80
2023/12/17 03:51:09;;;;;;;13.45;6.22;;;;;;;;;;5124026;27;20618;-80
2023/12/17 03:53:35;;;;;;;15.30;7.78;;;;;;;;;;5122772;27;20096;-78
2023/12/17 03:56:01;;;;;;;14.85;5.90;;;;;;;;;;5104506;27;20052;-80
2023/12/17 03:58:27;;;;;;;15.35;8.00;;;;;;;;;;5123278;27;20538;-79
2023/12/17 04:00:54;;;;;;;22.25;9.50;;;;;;;;;;5101021;27;20043;-80
2023/12/17 04:03:20;;;;;;;17.65;7.32;;;;;;;;;;5120379;27;20118;-81
2023/12/17 04:05:46;;;;;;;19.38;8.27;;;;;;;;;;5100233;27;20047;-80
2023/12/17 04:08:12;;;;;;;21.98;9.18;;;;;;;;;;5101891;27;20092;-79
2023/12/17 04:10:38;;;;;;;16.88;7.18;;;;;;;;;;5101062;27;20067;-80
2023/12/17 04:13:04;;;;;;;13.07;7.45;;;;;;;;;;5102063;27;20926;-80
2023/12/17 04:15:30;;;;;;;15.63;7.70;;;;;;;;;;5101845;27;20049;-81
2023/12/17 04:17:56;;;;;;;13.95;7.68;;;;;;;;;;5116301;27;20399;-80
2023/12/17 04:20:22;;;;;;;14.30;7.82;;;;;;;;;;5099004;27;20039;-81
2023/12/17 04:22:49;;;;;;;18.52;7.95;;;;;;;;;;5118266;27;20039;-81
2023/12/17 04:25:15;;;;;;;15.85;9.23;;;;;;;;;;5117065;27;20043;-80
2023/12/17 04:27:41;;;;;;;19.15;7.88;;;;;;;;;;5116563;27;20526;-81
2023/12/17 04:30:08;;;;;;;14.90;7.25;;;;;;;;;;5101297;27;20035;-80
2023/12/17 04:32:34;;;;;;;19.10;8.07;;;;;;;;;;5099157;27;20047;-82
2023/12/17 04:35:00;;;;;;;11.00;7.32;;;;;;;;;;5116809;27;20403;-80
2023/12/17 04:37:26;;;;;;;18.48;8.20;;;;;;;;;;5101366;27;20593;-80
2023/12/17 04:39:52;;;;;;;13.88;6.88;;;;;;;;;;5099374;27;20674;-81
2023/12/17 04:42:18;;;;;;;21.33;9.18;;;;;;;;;;5116958;27;20042;-80
2023/12/17 04:44:44;;;;;;;19.60;7.78;;;;;;;;;;5117948;27;20127;-80
2023/12/17 04:47:11;;;;;;;16.42;7.20;;;;;;;;;;5098648;27;20118;-79
2023/12/17 04:49:38;;;;;;;14.60;9.00;;;;;;;;;;5100124;27;20041;-80
2023/12/17 04:52:04;;;;;;;18.08;8.93;;;9.40;99.90;;;;;;5117263;27;20533;-80
2023/12/17 04:54:31;;;;;;;13.15;9.05;;;;;;;;;;5117607;27;20026;-80
2023/12/17 04:56:57;;;;;;;16.35;9.73;;;;;;;;;;5116411;27;20039;-82
2023/12/17 04:59:24;;;;;;;15.98;9.65;;;;;;;;;;5099385;27;20436;-79
2023/12/17 05:01:50;;;;;;;17.50;9.55;;;;;;;;;;5117834;27;20823;-82
2023/12/17 05:04:16;;;;;;;18.98;10.23;;;;;;;;;;5099405;27;20049;-80
2023/12/17 05:06:42;;;;;;;15.38;9.63;;;;;;;;;;5098615;27;20093;-80
2023/12/17 05:09:09;;;;;;;17.70;10.00;;;;;;;;;;5117809;27;20658;-80
2023/12/17 05:11:35;;;;;;;17.15;9.68;;;;;;;;;;5116554;27;20147;-81
2023/12/17 05:14:01;;;;;;;19.73;9.15;;;;;;;;;;5097506;27;20038;-80
2023/12/17 05:16:28;;;;;;;15.48;8.70;;;;;;;;;;5099945;27;20038;-81
2023/12/17 05:18:54;;;;;;;16.38;9.55;;;;;;;;;;5098639;27;20107;-80
2023/12/17 05:21:20;;;;;;;13.40;8.98;;;;;;;;;;5099000;27;20081;-81
2023/12/17 05:23:46;;;;;;;15.57;8.45;;;;;;;;;;5116741;27;20697;-80
2023/12/17 05:26:12;;;;;;;18.98;8.05;;;;;;;;;;5097063;27;20180;-81
2023/12/17 05:28:41;;;;;;;14.75;7.97;;;;;;;;;;5097969;27;20043;-80
2023/12/17 05:31:07;;;;;;;18.17;7.75;;;;;;;;;;5099821;27;20057;-81
2023/12/17 05:33:33;;;;;;;15.88;8.18;;;;;;;;;;5097498;27;20046;-81
2023/12/17 05:35:59;;;;;;;18.52;8.10;;;;;;;;;;5098304;27;20047;-80
2023/12/17 05:38:28;;;;;;;12.23;7.00;;;;;;;;;;5099817;27;20176;-81
2023/12/17 05:40:54;;;;;;;15.65;8.52;;;;;;;;;;5100147;27;20049;-81
2023/12/17 05:43:20;;;;;;;11.95;6.35;;;;;;;;;;5115226;27;20525;-79
2023/12/17 05:45:47;;;;;;;16.52;8.07;;;;;;;;;;5099178;27;20039;-81
2023/12/17 05:48:14;;;;;;;13.40;7.55;;;;;;;;;;5097333;27;20039;-81
2023/12/17 05:50:41;;;;;;;12.15;7.15;;;;;;;;;;5097862;27;20086;-80
2023/12/17 05:53:07;;;;;;;14.57;7.45;;;;;;;;;;5096709;27;20042;-81
2023/12/17 05:55:33;;;;;;;11.73;5.60;;;;;;;;;;5099105;27;20088;-80
2023/12/17 05:57:59;;;;;;;13.02;6.88;;;;;;;;;;5098658;27;20515;-81
2023/12/17 06:00:25;;;;;;;11.65;6.03;;;;;;;;;;5098486;27;20035;-80
2023/12/17 06:02:51;;;;;;;16.77;7.80;;;;;;;;;;5099816;27;20384;-80
2023/12/17 06:05:18;;;;;;;14.73;8.68;;;;;;;;;;5099570;27;20402;-80
2023/12/17 06:07:44;;;;;;;15.35;7.40;;;;;;;;;;5099389;27;20088;-80
2023/12/17 06:10:10;;;;;;;14.52;8.20;;;;;;;;;;5113797;27;20042;-81
2023/12/17 06:12:36;;;;;;;14.60;8.13;;;;;;;;;;5098314;27;20035;-80
2023/12/17 06:15:02;;;;;;;23.88;10.70;;;;;;;;;;5098844;27;20086;-80
2023/12/17 06:17:28;;;;;;;19.00;8.35;;;;;;;;;;5097407;27;20115;-80
2023/12/17 06:19:55;;;;;;;27.15;10.07;;;;;;;;;;5098506;27;20053;-81
2023/12/17 06:22:23;;;;;;;17.90;8.65;;;;;;;;;;5115578;27;20070;-80
2023/12/17 06:24:49;;;;;;;15.05;9.02;;;;;;;;;;5096851;27;20047;-81
2023/12/17 06:27:16;;;;;;;14.65;7.25;;;;;;;;;;5098233;27;20578;-80
2023/12/17 06:29:42;;;;;;;16.65;7.90;;;;;;;;;;5098252;27;20042;-81
2023/12/17 06:32:08;;;;;;;18.00;8.27;;;;;;;;;;5097469;27;20039;-80
2023/12/17 06:34:38;;;;;;;15.48;7.43;;;;;;;;;;5096192;28;20028;-81
2023/12/17 06:37:04;;;;;;;14.05;7.80;;;;;;;;;;5097729;27;20671;-81
2023/12/17 06:39:30;;;;;;;15.27;7.18;;;;;;;;;;5120709;27;20049;-82
2023/12/17 06:41:56;;;;;;;13.63;6.85;;;;;;;;;;5100438;27;20047;-81
2023/12/17 06:44:24;;;;;;;12.40;7.40;;;;;;;;;;5120084;27;20054;-81
2023/12/17 06:46:50;;;;;;;13.02;7.43;;;;;;;;;;5100679;27;20050;-80
2023/12/17 06:49:16;;;;;;;15.63;6.30;;;;;;;;;;5102375;27;20035;-80
2023/12/17 06:51:43;;;;;;;13.82;8.13;;;;;;;;;;5120104;27;20038;-81
2023/12/17 06:54:09;;;;;;;14.48;6.95;;;;;;;;;;5120661;27;20283;-81
2023/12/17 06:56:35;;;;;;;10.88;6.30;;;;;;;;;;5103503;27;20365;-80
2023/12/17 06:59:02;;;;;;;15.18;8.10;;;;;;;;;;5118150;27;20042;-82
2023/12/17 07:01:28;;;;;;;16.00;7.38;;;;;;;;;;5119843;27;20138;-80
2023/12/17 07:03:54;;;;;;;15.48;6.60;;;;;;;;;;5117813;27;20047;-81
2023/12/17 07:06:21;;;;;;;13.50;7.28;;;;;;;;;;5101347;27;20034;-81
2023/12/17 07:08:48;;;;;;;13.60;7.30;;;;;;;;;;5102502;27;20814;-81
2023/12/17 07:11:15;;;;;;;11.50;7.03;;;;;;;;;;5103319;27;20035;-79
2023/12/17 07:13:42;;;;;;;14.13;6.30;;;;;;;;;;5102015;27;20039;-81
2023/12/17 07:16:10;;;;;;;15.77;7.82;;;9.00;99.90;;;;;;5117282;27;20081;-80
2023/12/17 07:18:36;;;;;;;17.65;7.82;;;;;;;;;;5100668;27;20070;-80
2023/12/17 07:21:02;;;;;;;13.23;7.40;;;;;;;;;;5118151;27;20043;-80
2023/12/17 07:23:28;;;;;;;16.02;7.30;;;;;;;;;;5102735;27;20052;-82
2023/12/17 07:25:54;;;;;;;14.57;7.65;;;;;;;;;;5118405;27;20043;-81
2023/12/17 07:28:20;;;;;;;15.85;8.15;;;;;;;;;;5104104;27;20088;-82
2023/12/17 07:30:47;;;;;;;13.30;7.18;;;;;;;;;;5097824;27;20035;-81
2023/12/17 07:33:13;;;;;;;15.52;8.40;;;;;;;;;;5120107;27;20035;-82
2023/12/17 07:35:39;;;;;;;15.80;8.48;;;;;;;;;;5117968;27;20561;-81
2023/12/17 07:38:05;;;;;;;17.75;9.55;;;;;;;;;;5102168;27;20038;-81
2023/12/17 07:40:31;;;;;;;20.08;9.98;;;;;;;;;;5119839;27;20035;-81
2023/12/17 07:42:57;;;;;;;20.40;9.02;;;;;;;;;;5100443;27;20047;-80
2023/12/17 07:45:23;;;;;;;21.27;9.75;;;;;;;;;;5117250;27;20048;-81
2023/12/17 07:47:49;;;;;;;16.70;8.82;;;;;;;;;;5118106;27;20075;-81
2023/12/17 07:50:16;;;;;;;14.27;8.48;;;;;;;;;;5101050;27;20047;-82
2023/12/17 07:52:42;;;;;;;16.05;7.63;;;;;;;;;;5100729;27;20441;-81
2023/12/17 07:55:08;;;;;;;18.38;9.30;;;;;;;;;;5101545;27;20121;-82
2023/12/17 07:57:34;;;;;;;16.20;10.57;;;;;;;;;;5113634;27;20499;-81
2023/12/17 08:00:01;;;;;;;25.92;13.23;;;;;;;;;;5105393;27;20992;-80
2023/12/17 08:02:27;;;;;;;22.73;11.73;;;;;;;;;;5100300;27;21036;-82
2023/12/17 08:04:53;;;;;;;21.88;12.55;;;;;;;;;;5121236;27;20030;-80
2023/12/17 08:07:19;;;;;;;20.10;12.48;;;;;;;;;;5110736;27;20155;-81
2023/12/17 08:09:45;;;;;;;19.90;11.63;;;;;;;;;;5132661;27;20042;-82
2023/12/17 08:12:11;;;;;;;19.85;12.25;;;;;;;;;;5115367;27;20034;-80
2023/12/17 08:14:38;;;;;;;25.50;11.90;;;;;;;;;;5131932;27;20026;-81
2023/12/17 08:17:04;;;;;;;25.58;13.25;;;;;;;;;;5143884;27;20121;-80
2023/12/17 08:19:30;;;;;;;18.75;11.65;;;;;;;;;;5128955;27;20038;-82
2023/12/17 08:21:56;;;;;;;22.23;11.73;;;;;;;;;;5108850;27;20042;-81
2023/12/17 08:24:22;;;;;;;18.67;11.65;;;;;;;;;;5120032;27;20046;-81
2023/12/17 08:26:49;;;;;;;18.40;12.38;;;;;;;;;;5119130;27;20946;-81
2023/12/17 08:29:15;;;;;;;20.63;11.07;;;;;;;;;;5116301;27;20045;-81
2023/12/17 08:31:45;;;;;;;22.73;14.13;;;;;;;;;;5098350;27;20038;-81
2023/12/17 08:34:11;;;;;;;20.33;11.57;;;;;;;;;;5118772;27;20574;-81
2023/12/17 08:36:37;;;;;;;26.08;15.50;;;;;;;;;;5116231;27;20516;-82
2023/12/17 08:39:05;;;;;;;19.38;12.68;;;;;;;;;;5099838;27;20035;-80
2023/12/17 08:41:33;;;;;;;25.40;13.07;;;;;;;;;;5100033;27;20074;-80
2023/12/17 08:44:02;;;;;;;27.70;15.05;;;;;;;;;;5118112;27;20039;-82
2023/12/17 08:46:28;;;;;;;23.67;14.27;;;;;;;;;;5099030;27;20043;-82
2023/12/17 08:48:54;;;;;;;22.63;15.60;;;;;;;;;;5091159;27;20070;-81
2023/12/17 08:51:21;;;;;;;21.75;14.27;;;;;;;;;;5089897;27;20039;-80
2023/12/17 08:53:48;;;;;;;25.35;15.38;;;;;;;;;;5117409;27;20035;-80
2023/12/17 08:56:14;;;;;;;24.55;15.52;;;;;;;;;;5098585;27;20054;-81
2023/12/17 08:58:40;;;;;;;25.70;15.20;;;;;;;;;;5116522;27;20070;-81
2023/12/17 09:01:06;;;;;;;24.70;15.15;;;;;;;;;;5098904;27;20158;-81
2023/12/17 09:03:32;;;;;;;23.20;15.40;;;;;;;;;;5114938;27;20094;-81
2023/12/17 09:06:03;;;;;;;25.13;14.35;;;;;;;;;;5115118;27;20738;-81
2023/12/17 09:08:29;;;;;;;25.23;15.65;;;;;;;;;;5097874;27;20034;-81
2023/12/17 09:10:55;;;;;;;23.30;15.00;;;;;;;;;;5117446;27;20030;-81
2023/12/17 09:13:22;;;;;;;20.70;14.05;;;;;;;;;;5097405;27;20786;-81
2023/12/17 09:15:49;;;;;;;24.38;15.38;;;;;;;;;;5091501;27;20035;-81
2023/12/17 09:18:15;;;;;;;22.33;14.85;;;;;;;;;;5093762;27;20476;-81
2023/12/17 09:20:41;;;;;;;30.00;15.73;;;;;;;;;;5118867;27;20066;-80
2023/12/17 09:23:07;;;;;;;31.95;16.25;;;;;;;;;;5116040;27;20484;-80
2023/12/17 09:25:34;;;;;;;23.67;14.38;;;;;;;;;;5131770;27;20564;-81
2023/12/17 09:28:00;;;;;;;28.30;14.80;;;;;;;;;;5092486;27;20042;-81
2023/12/17 09:30:29;;;;;;;25.30;14.88;;;;;;;;;;5105675;27;20042;-81
2023/12/17 09:32:55;;;;;;;25.60;15.02;;;;;;;;;;5117018;27;20172;-81
2023/12/17 09:35:21;;;;;;;25.00;15.30;;;;;;;;;;5100411;27;20038;-80
2023/12/17 09:37:48;;;;;;;23.13;12.43;;;;;;;;;;5099203;27;20035;-80
2023/12/17 09:40:15;;;;;;;27.98;13.95;;;;;;;;;;5099730;27;20039;-81
2023/12/17 09:42:43;;;;;;;27.05;15.27;;;9.20;99.90;;;;;;5114452;27;20583;-80
2023/12/17 09:45:14;;;;;;;27.15;14.80;;;9.50;99.90;;;;;;5098804;27;20090;-80
2023/12/17 09:47:41;;;;;;;26.75;13.90;;;;;;;;;;5111098;27;20046;-81
2023/12/17 09:50:10;;;;;;;25.10;15.05;;;9.30;99.90;;;;;;5094308;27;20047;-80
2023/12/17 09:52:41;;;;;;;30.92;17.00;;;9.20;99.90;;;;;;5112754;27;20043;-82
2023/12/17 09:55:07;;;;;;;27.45;14.45;;;;;;;;;;5101125;27;20558;-81
2023/12/17 09:57:33;;;;;;;29.83;15.75;;;;;;;;;;5115230;27;20149;-81
2023/12/17 10:00:00;;;;;;;26.50;15.38;;;;;;;;;;5115453;27;20078;-80
2023/12/17 10:02:26;;;;;;;24.55;16.05;;;;;;;;;;5116941;27;20688;-81
2023/12/17 10:04:53;;;;;;;28.98;16.73;;;;;;;;;;5100752;27;20078;-81
2023/12/17 10:07:19;;;;;;;27.98;16.02;;;;;;;;;;5114683;27;20182;-79
2023/12/17 10:09:46;;;;;;;34.90;16.13;;;;;;;;;;5111650;27;20058;-80
2023/12/17 10:12:12;;;;;;;31.20;16.55;;;;;;;;;;5106739;27;20095;-80
2023/12/17 10:14:40;;;;;;;31.23;17.38;;;;;;;;;;5124432;27;20069;-81
2023/12/17 10:17:06;;;;;;;28.58;16.45;;;;;;;;;;5110775;27;20427;-80
2023/12/17 10:19:32;;;;;;;25.70;15.95;;;;;;;;;;5138246;27;20392;-80
2023/12/17 10:22:05;;;;;;;29.17;18.05;;;;;;;;;;5104602;27;20115;-82
2023/12/17 10:24:40;;;;;;;31.98;17.45;;;;;;;;;;5098743;27;20487;-81
2023/12/17 10:27:16;;;;;;;32.22;17.13;;;;;;;;;;5098403;27;20035;-82
2023/12/17 10:29:43;;;;;;;37.92;19.42;;;;;;;;;;5099731;27;20061;-81
2023/12/17 10:32:11;;;;;;;36.15;18.70;;;;;;;;;;5098180;27;20062;-80
2023/12/17 10:34:41;;;;;;;31.02;18.88;;;;;;;;;;5107741;27;20179;-80
2023/12/17 10:37:07;;;;;;;35.65;19.55;;;;;;;;;;5104972;28;20141;-81
2023/12/17 10:39:34;;;;;;;38.25;20.85;;;;;;;;;;5105346;28;20043;-81
2023/12/17 10:42:05;;;;;;;34.17;18.23;;;;;;;;;;5105724;28;20059;-81
2023/12/17 10:44:31;;;;;;;38.08;19.88;;;;;;;;;;5103094;28;20050;-81
2023/12/17 10:46:59;;;;;;;30.88;16.88;;;;;;;;;;5088196;28;20076;-81
2023/12/17 10:49:27;;;;;;;32.03;18.58;;;;;;;;;;5106618;28;20412;-81
2023/12/17 10:51:53;;;;;;;36.10;18.55;;;;;;;;;;5089040;28;20511;-80
2023/12/17 10:54:19;;;;;;;31.52;18.05;;;;;;;;;;5105639;28;20084;-80
2023/12/17 10:56:47;;;;;;;28.58;15.80;;;;;;;;;;5088460;28;20073;-82
2023/12/17 10:59:14;;;;;;;30.27;15.32;;;;;;;;;;5104261;28;20035;-81
2023/12/17 11:01:42;;;;;;;32.78;16.42;;;;;;;;;;5087873;28;20087;-81
2023/12/17 11:04:09;;;;;;;29.90;16.33;;;;;;;;;;5088344;28;20043;-80
2023/12/17 11:06:35;;;;;;;28.60;16.23;;;;;;;;;;5087292;28;20043;-80
2023/12/17 11:09:01;;;;;;;26.63;15.65;;;;;;;;;;5087622;28;20582;-81
2023/12/17 11:11:31;;;;;;;30.42;13.85;;;;;;;;;;5104740;28;20045;-80
2023/12/17 11:13:57;;;;;;;23.08;14.80;;;;;;;;;;5086962;27;20603;-80
2023/12/17 11:16:24;;;;;;;21.65;12.50;;;;;;;;;;5106707;27;20045;-80
2023/12/17 11:18:53;;;;;;;23.33;14.18;;;;;;;;;;5114825;27;20503;-81
2023/12/17 11:21:20;;;;;;;22.95;12.55;;;;;;;;;;5115393;27;20582;-80
2023/12/17 11:23:47;;;;;;;21.80;13.60;;;;;;;;;;5100282;27;20503;-80
2023/12/17 11:26:17;;;;;;;20.02;12.43;;;;;;;;;;5100257;27;20496;-81
2023/12/17 11:28:48;;;;;;;22.10;14.52;;;;;;;;;;5118488;27;20503;-80
2023/12/17 11:31:14;;;;;;;26.27;12.27;;;;;;;;;;5102513;27;20035;-80
2023/12/17 11:33:41;;;;;;;22.67;13.77;;;;;;;;;;5102096;27;20034;-81
2023/12/17 11:36:11;;;;;;;24.58;15.32;;;9.60;99.90;;;;;;5118715;27;20659;-81
2023/12/17 11:38:38;;;;;;;17.50;12.73;;;;;;;;;;5117265;27;20043;-82
2023/12/17 11:41:05;;;;;;;19.60;12.75;;;9.70;99.90;;;;;;5100958;27;20511;-80
2023/12/17 11:43:31;;;;;;;22.00;12.73;;;;;;;;;;5118856;27;20039;-80
2023/12/17 11:45:58;;;;;;;18.73;11.63;;;;;;;;;;5099830;27;20039;-80
2023/12/17 11:48:25;;;;;;;20.67;13.20;;;;;;;;;;5128207;27;20039;-81
2023/12/17 11:50:54;;;;;;;20.30;12.93;;;9.60;99.90;;;;;;5091805;27;20081;-79
2023/12/17 11:53:20;;;;;;;16.80;11.60;;;;;;;;;;5090499;27;20039;-80
2023/12/17 11:55:55;;;;;;;24.38;13.52;;;9.40;99.90;;;;;;5090981;27;20047;-81
2023/12/17 11:58:22;;;;;;;22.23;13.75;;;;;;;;;;5113619;27;20511;-80
2023/12/17 12:01:01;;;;;;;19.02;11.27;;;;;;;;;;5121058;27;20583;-80
2023/12/17 12:03:28;;;;;;;20.65;13.55;;;;;;;;;;5104702;27;20042;-80
2023/12/17 12:06:03;;;;;;;26.95;13.23;;;;;;;;;;5116044;27;20122;-81
2023/12/17 12:08:35;;;;;;;19.55;12.88;;;;;;;;;;5101760;27;20067;-82
2023/12/17 12:11:04;;;;;;;19.20;12.32;;;9.60;99.90;;;;;;5115404;27;20360;-80
2023/12/17 12:13:31;;;;;;;19.23;13.23;;;;;;;;;;5108965;27;20054;-78
2023/12/17 12:16:00;;;;;;;21.17;12.70;;;;;;;;;;5111935;27;20509;-79
2023/12/17 12:18:26;;;;;;;25.27;13.38;;;;;;;;;;5113106;27;20031;-81
2023/12/17 12:20:54;;;;;;;25.02;14.90;;;;;;;;;;5125462;27;20039;-81
2023/12/17 12:23:20;;;;;;;27.60;16.27;;;;;;;;;;5107574;27;20171;-79
2023/12/17 12:25:47;;;;;;;29.52;14.20;;;;;;;;;;5129793;27;20035;-79
2023/12/17 12:28:18;;;;;;;30.25;16.77;;;;;;;;;;5122735;27;20038;-80
2023/12/17 12:30:44;;;;;;;28.83;17.30;;;;;;;;;;5116097;27;20539;-81
2023/12/17 12:33:11;;;;;;;30.08;16.73;;;;;;;;;;5103145;27;20038;-81
2023/12/17 12:35:38;;;;;;;27.30;16.35;;;;;;;;;;5110435;27;20062;-82
2023/12/17 12:38:21;;;;;;;32.35;17.80;;;;;;;;;;5128147;27;20047;-80
2023/12/17 12:40:47;;;;;;;30.23;17.83;;;;;;;;;;5114461;27;20499;-79
2023/12/17 12:43:16;;;;;;;34.35;19.42;;;;;;;;;;5128609;27;20050;-81
2023/12/17 12:45:42;;;;;;;30.45;17.30;;;;;;;;;;5117770;27;20471;-80
2023/12/17 12:48:23;;;;;;;30.52;18.75;;;9.10;99.90;;;;;;5125747;27;20038;-81
2023/12/17 12:50:54;;;;;;;35.78;18.85;;;9.00;99.90;;;;;;5127724;27;20084;-80
2023/12/17 12:53:21;;;;;;;35.05;19.38;;;;;;;;;;5119016;27;20451;-80
2023/12/17 12:55:50;;;;;;;34.15;18.23;;;8.80;99.90;;;;;;5120468;27;20035;-81
2023/12/17 12:58:16;;;;;;;34.03;16.77;;;;;;;;;;5099269;27;20384;-80
2023/12/17 13:00:44;;;;;;;36.92;19.23;;;;;;;;;;5115152;27;20151;-80
2023/12/17 13:03:10;;;;;;;34.00;18.85;;;;;;;;;;5112050;27;20462;-80
2023/12/17 13:05:37;;;;;;;31.95;19.35;;;;;;;;;;5111413;27;20106;-80
2023/12/17 13:08:03;;;;;;;38.47;19.25;;;;;;;;;;5101032;27;20071;-82
2023/12/17 13:10:29;;;;;;;36.13;18.95;;;;;;;;;;5113287;27;20039;-80
2023/12/17 13:12:55;;;;;;;37.60;19.77;;;;;;;;;;5097430;27;20034;-80
2023/12/17 13:15:24;;;;;;;33.83;19.25;;;;;;;;;;5097965;27;20031;-80
2023/12/17 13:17:51;;;;;;;31.10;17.20;;;;;;;;;;5118700;27;20045;-81
2023/12/17 13:20:17;;;;;;;35.15;20.33;;;;;;;;;;5101972;27;20043;-79
2023/12/17 13:22:43;;;;;;;35.70;18.80;;;;;;;;;;5117008;27;20042;-80
2023/12/17 13:25:09;;;;;;;35.53;19.85;;;;;;;;;;5111752;27;20046;-81
2023/12/17 13:27:36;;;;;;;35.33;19.05;;;;;;;;;;5117184;27;20039;-80
2023/12/17 13:30:03;;;;;;;29.50;17.20;;;;;;;;;;5114888;27;20501;-80
2023/12/17 13:32:29;;;;;;;31.88;18.15;;;8.80;99.90;;;;;;5117081;27;20035;-79
2023/12/17 13:34:55;;;;;;;27.88;16.45;;;;;;;;;;5095269;27;20031;-80
2023/12/17 13:37:21;;;;;;;33.05;17.05;;;;;;;;;;5097489;27;20119;-81
2023/12/17 13:39:47;;;;;;;28.85;16.77;;;;;;;;;;5115488;27;20043;-83
2023/12/17 13:42:13;;;;;;;28.15;16.95;;;;;;;;;;5103904;27;20034;-81
2023/12/17 13:44:40;;;;;;;31.70;16.20;;;;;;;;;;5113752;27;20053;-82
2023/12/17 13:47:06;;;;;;;29.58;18.10;;;;;;;;;;5101525;27;20045;-80
2023/12/17 13:49:35;;;;;;;32.10;17.67;;;;;;;;;;5113632;27;20066;-80
2023/12/17 13:52:08;;;;;;;32.08;18.48;;;;;;;;;;5123849;27;20130;-80
2023/12/17 13:54:35;;;;;;;28.23;16.23;;;;;;;;;;5092926;27;20044;-80
2023/12/17 13:57:02;;;;;;;29.35;17.75;;;;;;;;;;5096679;27;20050;-81
2023/12/17 13:59:29;;;;;;;28.23;17.50;;;;;;;;;;5092314;27;20602;-81
2023/12/17 14:01:55;;;;;;;26.52;15.77;;;;;;;;;;5098705;27;20082;-81
2023/12/17 14:04:21;;;;;;;28.27;17.02;;;;;;;;;;5126739;27;20043;-80
2023/12/17 14:06:50;;;;;;;27.10;15.75;;;;;;;;;;5089102;27;20514;-81
2023/12/17 14:09:17;;;;;;;28.33;16.38;;;;;;;;;;5106111;27;20726;-80
2023/12/17 14:11:43;;;;;;;26.80;17.38;;;;;;;;;;5113943;27;20190;-81
2023/12/17 14:14:09;;;;;;;27.67;16.40;;;;;;;;;;5115126;27;20039;-81
2023/12/17 14:16:37;;;;;;;27.65;17.20;;;;;;;;;;5118117;27;20211;-80